sensor_id;sensor_type;location;lat;lon;timestamp;temperature;humidity
13186;DHT22;6658;53.080;7.428;2024-01-25T00:01:11;8.50;99.90
13186;DHT22;6658;53.080;7.428;2024-01-25T00:03:39;8.50;99.90
13186;DHT22;6658;53.080;7.428;2024-01-25T00:06:08;8.50;99.90
13186;DHT22;6658;53.080;7.428;2024-01-25T00:08:34;8.50;99.90
13186;DHT22;6658;53.080;7.428;2024-01-25T00:11:04;8.50;99.90
13186;DHT22;6658;53.080;7.428;2024-01-25T00:13:30;8.50;99.90
13186;DHT22;6658;53.080;7.428;2024-01-25T00:15:59;8.40;99.90
13186;DHT22;6658;53.080;7.428;2024-01-25T00:18:25;8.40;99.90
13186;DHT22;6658;53.080;7.428;2024-01-25T00:20:55;8.40;99.90
13186;DHT22;6658;53.080;7.428;2024-01-25T00:23:24;8.30;99.90
13186;DHT22;6658;53.080;7.428;2024-01-25T00:25:50;8.30;99.90
13186;DHT22;6658;53.080;7.428;2024-01-25T00:28:16;8.20;99.90
13186;DHT22;6658;53.080;7.428;2024-01-25T00:30:52;8.20;99.90
13186;DHT22;6658;53.080;7.428;2024-01-25T00:33:26;8.10;99.90
13186;DHT22;6658;53.080;7.428;2024-01-25T00:35:54;8.10;99.90
13186;DHT22;6658;53.080;7.428;2024-01-25T00:38:24;8.10;99.90
13186;DHT22;6658;53.080;7.428;2024-01-25T00:40:52;8.10;99.90
13186;DHT22;6658;53.080;7.428;2024-01-25T00:43:21;8.10;99.90
13186;DHT22;6658;53.080;7.428;2024-01-25T00:45:52;8.10;99.90
13186;DHT22;6658;53.080;7.428;2024-01-25T00:48:18;8.20;99.90
13186;DHT22;6658;53.080;7.428;2024-01-25T00:50:44;8.10;99.90
13186;DHT22;6658;53.080;7.428;2024-01-25T00:53:18;8.10;99.90
13186;DHT22;6658;53.080;7.428;2024-01-25T00:55:50;8.10;99.90
13186;DHT22;6658;53.080;7.428;2024-01-25T00:58:16;8.00;99.90
13186;DHT22;6658;53.080;7.428;2024-01-25T01:03:21;7.80;99.90
13186;DHT22;6658;53.080;7.428;2024-01-25T01:05:50;7.80;99.90
13186;DHT22;6658;53.080;7.428;2024-01-25T01:08:16;7.70;99.90
13186;DHT22;6658;53.080;7.428;2024-01-25T01:10:42;7.70;99.90
13186;DHT22;6658;53.080;7.428;2024-01-25T01:13:18;7.60;99.90
13186;DHT22;6658;53.080;7.428;2024-01-25T01:15:46;7.60;99.90
13186;DHT22;6658;53.080;7.428;2024-01-25T01:18:12;7.60;99.90
13186;DHT22;6658;53.080;7.428;2024-01-25T01:20:37;7.50;99.90
13186;DHT22;6658;53.080;7.428;2024-01-25T01:23:03;7.60;99.90
13186;DHT22;6658;53.080;7.428;2024-01-25T01:25:31;7.50;99.90
13186;DHT22;6658;53.080;7.428;2024-01-25T01:27:57;7.50;99.90
13186;DHT22;6658;53.080;7.428;2024-01-25T01:30:23;7.40;99.90
13186;DHT22;6658;53.080;7.428;2024-01-25T01:32:48;7.40;99.90
13186;DHT22;6658;53.080;7.428;2024-01-25T01:35:23;7.30;99.90
13186;DHT22;6658;53.080;7.428;2024-01-25T01:37:48;7.30;99.90
13186;DHT22;6658;53.080;7.428;2024-01-25T01:40:14;7.20;99.90
13186;DHT22;6658;53.080;7.428;2024-01-25T01:42:40;7.20;99.90
13186;DHT22;6658;53.080;7.428;2024-01-25T01:45:06;7.20;99.90
13186;DHT22;6658;53.080;7.428;2024-01-25T01:47:34;7.20;99.90
13186;DHT22;6658;53.080;7.428;2024-01-25T01:50:01;7.20;99.90
13186;DHT22;6658;53.080;7.428;2024-01-25T01:52:27;7.20;99.90
13186;DHT22;6658;53.080;7.428;2024-01-25T01:54:53;7.10;99.90
13186;DHT22;6658;53.080;7.428;2024-01-25T01:57:21;7.10;99.90
13186;DHT22;6658;53.080;7.428;2024-01-25T01:59:57;7.00;99.90
13186;DHT22;6658;53.080;7.428;2024-01-25T02:02:38;7.00;99.90
13186;DHT22;6658;53.080;7.428;2024-01-25T02:05:07;7.00;99.90
13186;DHT22;6658;53.080;7.428;2024-01-25T02:07:33;6.90;99.90
13186;DHT22;6658;53.080;7.428;2024-01-25T02:10:08;6.90;99.90
13186;DHT22;6658;53.080;7.428;2024-01-25T02:12:35;6.80;99.90
13186;DHT22;6658;53.080;7.428;2024-01-25T02:15:03;6.80;99.90
13186;DHT22;6658;53.080;7.428;2024-01-25T02:17:33;6.70;99.90
13186;DHT22;6658;53.080;7.428;2024-01-25T02:19:59;6.70;99.90
13186;DHT22;6658;53.080;7.428;2024-01-25T02:22:27;6.70;99.90
13186;DHT22;6658;53.080;7.428;2024-01-25T02:24:56;6.70;99.90
13186;DHT22;6658;53.080;7.428;2024-01-25T02:27:25;6.70;99.90
13186;DHT22;6658;53.080;7.428;2024-01-25T02:29:54;6.70;99.90
13186;DHT22;6658;53.080;7.428;2024-01-25T02:32:29;6.70;99.90
13186;DHT22;6658;53.080;7.428;2024-01-25T02:34:58;6.60;99.90
13186;DHT22;6658;53.080;7.428;2024-01-25T02:37:23;6.60;99.90
13186;DHT22;6658;53.080;7.428;2024-01-25T02:39:49;6.60;99.90
13186;DHT22;6658;53.080;7.428;2024-01-25T02:42:18;6.60;99.90
13186;DHT22;6658;53.080;7.428;2024-01-25T02:44:47;6.60;99.90
13186;DHT22;6658;53.080;7.428;2024-01-25T02:47:17;6.60;99.90
13186;DHT22;6658;53.080;7.428;2024-01-25T02:49:44;6.50;99.90
13186;DHT22;6658;53.080;7.428;2024-01-25T02:52:12;6.50;99.90
13186;DHT22;6658;53.080;7.428;2024-01-25T02:54:38;6.50;99.90
13186;DHT22;6658;53.080;7.428;2024-01-25T02:57:13;6.50;99.90
13186;DHT22;6658;53.080;7.428;2024-01-25T02:59:41;6.40;99.90
13186;DHT22;6658;53.080;7.428;2024-01-25T03:02:07;6.40;99.90
13186;DHT22;6658;53.080;7.428;2024-01-25T03:04:41;6.40;99.90
13186;DHT22;6658;53.080;7.428;2024-01-25T03:07:16;6.40;99.90
13186;DHT22;6658;53.080;7.428;2024-01-25T03:09:41;6.40;99.90
13186;DHT22;6658;53.080;7.428;2024-01-25T03:12:10;6.40;99.90
13186;DHT22;6658;53.080;7.428;2024-01-25T03:14:44;6.40;99.90
13186;DHT22;6658;53.080;7.428;2024-01-25T03:17:10;6.40;99.90
13186;DHT22;6658;53.080;7.428;2024-01-25T03:19:38;6.30;99.90
13186;DHT22;6658;53.080;7.428;2024-01-25T03:22:04;6.30;99.90
13186;DHT22;6658;53.080;7.428;2024-01-25T03:24:29;6.30;99.90
13186;DHT22;6658;53.080;7.428;2024-01-25T03:26:55;6.30;99.90
13186;DHT22;6658;53.080;7.428;2024-01-25T03:29:21;6.30;99.90
13186;DHT22;6658;53.080;7.428;2024-01-25T03:31:53;6.30;99.90
13186;DHT22;6658;53.080;7.428;2024-01-25T03:34:24;6.30;99.90
13186;DHT22;6658;53.080;7.428;2024-01-25T03:36:55;6.20;99.90
13186;DHT22;6658;53.080;7.428;2024-01-25T03:39:36;6.30;99.90
13186;DHT22;6658;53.080;7.428;2024-01-25T03:42:04;6.30;99.90
13186;DHT22;6658;53.080;7.428;2024-01-25T03:44:29;6.30;99.90
13186;DHT22;6658;53.080;7.428;2024-01-25T03:46:55;6.20;99.90
13186;DHT22;6658;53.080;7.428;2024-01-25T03:49:21;6.20;99.90
13186;DHT22;6658;53.080;7.428;2024-01-25T03:51:49;6.10;99.90
13186;DHT22;6658;53.080;7.428;2024-01-25T03:54:17;6.10;99.90
13186;DHT22;6658;53.080;7.428;2024-01-25T03:56:43;6.00;99.90
13186;DHT22;6658;53.080;7.428;2024-01-25T03:59:11;6.00;99.90
13186;DHT22;6658;53.080;7.428;2024-01-25T04:01:43;6.00;99.90
13186;DHT22;6658;53.080;7.428;2024-01-25T04:04:09;6.00;99.90
13186;DHT22;6658;53.080;7.428;2024-01-25T04:06:53;6.00;99.90
13186;DHT22;6658;53.080;7.428;2024-01-25T04:09:29;6.00;99.90
13186;DHT22;6658;53.080;7.428;2024-01-25T04:11:59;5.90;99.90
13186;DHT22;6658;53.080;7.428;2024-01-25T04:14:34;5.90;99.90
13186;DHT22;6658;53.080;7.428;2024-01-25T04:16:59;5.90;99.90
13186;DHT22;6658;53.080;7.428;2024-01-25T04:19:30;5.80;99.90
13186;DHT22;6658;53.080;7.428;2024-01-25T04:21:57;5.90;99.90
13186;DHT22;6658;53.080;7.428;2024-01-25T04:24:25;5.80;99.90
13186;DHT22;6658;53.080;7.428;2024-01-25T04:26:59;5.80;99.90
13186;DHT22;6658;53.080;7.428;2024-01-25T04:29:25;5.70;99.90
13186;DHT22;6658;53.080;7.428;2024-01-25T04:31:51;5.60;99.90
13186;DHT22;6658;53.080;7.428;2024-01-25T04:34:17;5.50;99.90
13186;DHT22;6658;53.080;7.428;2024-01-25T04:36:48;5.40;99.90
13186;DHT22;6658;53.080;7.428;2024-01-25T04:39:19;5.40;99.90
13186;DHT22;6658;53.080;7.428;2024-01-25T04:41:48;5.30;99.90
13186;DHT22;6658;53.080;7.428;2024-01-25T04:44:16;5.30;99.90
13186;DHT22;6658;53.080;7.428;2024-01-25T04:46:42;5.20;99.90
13186;DHT22;6658;53.080;7.428;2024-01-25T04:49:08;5.20;99.90
13186;DHT22;6658;53.080;7.428;2024-01-25T04:51:38;5.20;99.90
13186;DHT22;6658;53.080;7.428;2024-01-25T04:54:07;5.20;99.90
13186;DHT22;6658;53.080;7.428;2024-01-25T04:56:38;5.20;99.90
13186;DHT22;6658;53.080;7.428;2024-01-25T04:59:04;5.20;99.90
13186;DHT22;6658;53.080;7.428;2024-01-25T05:01:38;5.10;99.90
13186;DHT22;6658;53.080;7.428;2024-01-25T05:04:09;5.10;99.90
13186;DHT22;6658;53.080;7.428;2024-01-25T05:06:41;5.10;99.90
13186;DHT22;6658;53.080;7.428;2024-01-25T05:09:09;5.10;99.90
13186;DHT22;6658;53.080;7.428;2024-01-25T05:12:00;5.00;99.90
13186;DHT22;6658;53.080;7.428;2024-01-25T05:14:27;5.00;99.90
13186;DHT22;6658;53.080;7.428;2024-01-25T05:17:12;5.00;99.90
13186;DHT22;6658;53.080;7.428;2024-01-25T05:22:26;5.00;99.90
13186;DHT22;6658;53.080;7.428;2024-01-25T05:25:12;5.00;99.90
13186;DHT22;6658;53.080;7.428;2024-01-25T05:27:40;5.00;99.90
13186;DHT22;6658;53.080;7.428;2024-01-25T05:30:15;5.00;99.90
13186;DHT22;6658;53.080;7.428;2024-01-25T05:32:43;5.00;99.90
13186;DHT22;6658;53.080;7.428;2024-01-25T05:35:09;4.90;99.90
13186;DHT22;6658;53.080;7.428;2024-01-25T05:37:44;4.90;99.90
13186;DHT22;6658;53.080;7.428;2024-01-25T05:40:10;4.90;99.90
13186;DHT22;6658;53.080;7.428;2024-01-25T05:45:46;4.90;99.90
13186;DHT22;6658;53.080;7.428;2024-01-25T05:48:15;4.90;99.90
13186;DHT22;6658;53.080;7.428;2024-01-25T05:50:46;4.80;99.90
13186;DHT22;6658;53.080;7.428;2024-01-25T05:53:15;4.80;99.90
13186;DHT22;6658;53.080;7.428;2024-01-25T05:55:47;4.90;99.90
13186;DHT22;6658;53.080;7.428;2024-01-25T05:58:16;4.90;99.90
13186;DHT22;6658;53.080;7.428;2024-01-25T06:00:42;4.80;99.90
13186;DHT22;6658;53.080;7.428;2024-01-25T06:03:08;4.90;99.90
13186;DHT22;6658;53.080;7.428;2024-01-25T06:05:37;4.80;99.90
13186;DHT22;6658;53.080;7.428;2024-01-25T06:08:08;4.80;99.90
13186;DHT22;6658;53.080;7.428;2024-01-25T06:10:37;4.80;99.90
13186;DHT22;6658;53.080;7.428;2024-01-25T06:13:03;4.80;99.90
13186;DHT22;6658;53.080;7.428;2024-01-25T06:15:29;4.80;99.90
13186;DHT22;6658;53.080;7.428;2024-01-25T06:17:54;4.80;99.90
13186;DHT22;6658;53.080;7.428;2024-01-25T06:20:28;4.70;99.90
13186;DHT22;6658;53.080;7.428;2024-01-25T06:22:54;4.70;99.90
13186;DHT22;6658;53.080;7.428;2024-01-25T06:25:20;4.80;99.90
13186;DHT22;6658;53.080;7.428;2024-01-25T06:27:49;4.80;99.90
13186;DHT22;6658;53.080;7.428;2024-01-25T06:30:15;4.80;99.90
13186;DHT22;6658;53.080;7.428;2024-01-25T06:32:40;4.70;99.90
13186;DHT22;6658;53.080;7.428;2024-01-25T06:35:09;4.70;99.90
13186;DHT22;6658;53.080;7.428;2024-01-25T06:37:35;4.70;99.90
13186;DHT22;6658;53.080;7.428;2024-01-25T06:40:00;4.70;99.90
13186;DHT22;6658;53.080;7.428;2024-01-25T06:42:26;4.70;99.90
13186;DHT22;6658;53.080;7.428;2024-01-25T06:44:52;4.70;99.90
13186;DHT22;6658;53.080;7.428;2024-01-25T06:47:18;4.70;99.90
13186;DHT22;6658;53.080;7.428;2024-01-25T06:49:43;4.70;99.90
13186;DHT22;6658;53.080;7.428;2024-01-25T06:52:13;4.70;99.90
13186;DHT22;6658;53.080;7.428;2024-01-25T06:54:41;4.60;99.90
13186;DHT22;6658;53.080;7.428;2024-01-25T06:57:07;4.70;99.90
13186;DHT22;6658;53.080;7.428;2024-01-25T06:59:33;4.70;99.90
13186;DHT22;6658;53.080;7.428;2024-01-25T07:02:07;4.70;99.90
13186;DHT22;6658;53.080;7.428;2024-01-25T07:04:33;4.70;99.90
13186;DHT22;6658;53.080;7.428;2024-01-25T07:06:59;4.70;99.90
13186;DHT22;6658;53.080;7.428;2024-01-25T07:09:26;4.70;99.90
13186;DHT22;6658;53.080;7.428;2024-01-25T07:11:57;4.70;99.90
13186;DHT22;6658;53.080;7.428;2024-01-25T07:14:22;4.70;99.90
13186;DHT22;6658;53.080;7.428;2024-01-25T07:16:50;4.70;99.90
13186;DHT22;6658;53.080;7.428;2024-01-25T07:19:16;4.70;99.90
13186;DHT22;6658;53.080;7.428;2024-01-25T07:21:53;4.70;99.90
13186;DHT22;6658;53.080;7.428;2024-01-25T07:24:22;4.70;99.90
13186;DHT22;6658;53.080;7.428;2024-01-25T07:26:57;4.70;99.90
13186;DHT22;6658;53.080;7.428;2024-01-25T07:29:28;4.70;99.90
13186;DHT22;6658;53.080;7.428;2024-01-25T07:31:57;4.70;99.90
13186;DHT22;6658;53.080;7.428;2024-01-25T07:34:44;4.70;99.90
13186;DHT22;6658;53.080;7.428;2024-01-25T07:37:12;4.60;99.90
13186;DHT22;6658;53.080;7.428;2024-01-25T07:39:39;4.70;99.90
13186;DHT22;6658;53.080;7.428;2024-01-25T07:42:18;4.60;99.90
13186;DHT22;6658;53.080;7.428;2024-01-25T07:45:21;4.60;99.90
13186;DHT22;6658;53.080;7.428;2024-01-25T07:48:12;4.60;99.90
13186;DHT22;6658;53.080;7.428;2024-01-25T07:50:40;4.60;99.90
13186;DHT22;6658;53.080;7.428;2024-01-25T07:53:10;4.70;99.90
13186;DHT22;6658;53.080;7.428;2024-01-25T07:55:46;4.70;99.90
13186;DHT22;6658;53.080;7.428;2024-01-25T07:58:14;4.70;99.90
13186;DHT22;6658;53.080;7.428;2024-01-25T08:01:07;4.70;99.90
13186;DHT22;6658;53.080;7.428;2024-01-25T08:03:38;4.70;99.90
13186;DHT22;6658;53.080;7.428;2024-01-25T08:06:25;4.80;99.90
13186;DHT22;6658;53.080;7.428;2024-01-25T08:09:08;4.80;99.90
13186;DHT22;6658;53.080;7.428;2024-01-25T08:11:58;4.80;99.90
13186;DHT22;6658;53.080;7.428;2024-01-25T08:14:28;4.80;99.90
13186;DHT22;6658;53.080;7.428;2024-01-25T08:17:03;4.90;99.90
13186;DHT22;6658;53.080;7.428;2024-01-25T08:19:45;4.90;99.90
13186;DHT22;6658;53.080;7.428;2024-01-25T08:22:32;5.00;99.90
13186;DHT22;6658;53.080;7.428;2024-01-25T08:25:04;5.00;99.90
13186;DHT22;6658;53.080;7.428;2024-01-25T08:27:58;5.10;99.90
13186;DHT22;6658;53.080;7.428;2024-01-25T08:33:53;5.10;99.90
13186;DHT22;6658;53.080;7.428;2024-01-25T08:36:41;5.20;99.90
13186;DHT22;6658;53.080;7.428;2024-01-25T08:40:11;5.20;99.90
13186;DHT22;6658;53.080;7.428;2024-01-25T08:42:39;5.20;99.90
13186;DHT22;6658;53.080;7.428;2024-01-25T08:45:05;5.30;99.90
13186;DHT22;6658;53.080;7.428;2024-01-25T08:47:36;5.30;99.90
13186;DHT22;6658;53.080;7.428;2024-01-25T08:50:08;5.30;99.90
13186;DHT22;6658;53.080;7.428;2024-01-25T08:52:51;5.30;99.90
13186;DHT22;6658;53.080;7.428;2024-01-25T08:55:22;5.40;99.90
13186;DHT22;6658;53.080;7.428;2024-01-25T08:57:49;5.50;99.90
13186;DHT22;6658;53.080;7.428;2024-01-25T09:00:15;5.50;99.90
13186;DHT22;6658;53.080;7.428;2024-01-25T09:02:41;5.60;99.90
13186;DHT22;6658;53.080;7.428;2024-01-25T09:05:30;5.60;99.90
13186;DHT22;6658;53.080;7.428;2024-01-25T09:07:59;5.70;99.90
13186;DHT22;6658;53.080;7.428;2024-01-25T09:10:34;5.70;99.90
13186;DHT22;6658;53.080;7.428;2024-01-25T09:13:05;5.80;99.90
13186;DHT22;6658;53.080;7.428;2024-01-25T09:15:44;5.90;99.90
13186;DHT22;6658;53.080;7.428;2024-01-25T09:18:38;6.00;99.90
13186;DHT22;6658;53.080;7.428;2024-01-25T09:21:40;6.00;99.90
13186;DHT22;6658;53.080;7.428;2024-01-25T09:24:14;6.10;99.90
13186;DHT22;6658;53.080;7.428;2024-01-25T09:26:43;6.20;99.90
13186;DHT22;6658;53.080;7.428;2024-01-25T09:29:11;6.30;99.90
13186;DHT22;6658;53.080;7.428;2024-01-25T09:31:37;6.30;99.90
13186;DHT22;6658;53.080;7.428;2024-01-25T09:34:03;6.30;99.90
13186;DHT22;6658;53.080;7.428;2024-01-25T09:36:38;6.40;99.90
13186;DHT22;6658;53.080;7.428;2024-01-25T09:39:03;6.40;99.90
13186;DHT22;6658;53.080;7.428;2024-01-25T09:41:29;6.40;99.90
13186;DHT22;6658;53.080;7.428;2024-01-25T09:44:06;6.40;99.90
13186;DHT22;6658;53.080;7.428;2024-01-25T09:46:35;6.40;99.90
13186;DHT22;6658;53.080;7.428;2024-01-25T09:49:03;6.50;99.90
13186;DHT22;6658;53.080;7.428;2024-01-25T09:51:36;6.50;99.90
13186;DHT22;6658;53.080;7.428;2024-01-25T09:54:05;6.50;99.90
13186;DHT22;6658;53.080;7.428;2024-01-25T09:57:19;6.60;99.90
13186;DHT22;6658;53.080;7.428;2024-01-25T10:00:13;6.60;99.90
13186;DHT22;6658;53.080;7.428;2024-01-25T10:02:44;6.60;99.90
13186;DHT22;6658;53.080;7.428;2024-01-25T10:05:10;6.70;99.90
13186;DHT22;6658;53.080;7.428;2024-01-25T10:07:40;6.80;99.90
13186;DHT22;6658;53.080;7.428;2024-01-25T10:10:06;6.80;99.90
13186;DHT22;6658;53.080;7.428;2024-01-25T10:12:33;6.80;99.90
13186;DHT22;6658;53.080;7.428;2024-01-25T10:17:45;7.00;99.90
13186;DHT22;6658;53.080;7.428;2024-01-25T10:20:35;7.10;99.90
13186;DHT22;6658;53.080;7.428;2024-01-25T10:23:38;7.20;99.90
13186;DHT22;6658;53.080;7.428;2024-01-25T10:33:02;7.50;99.90
13186;DHT22;6658;53.080;7.428;2024-01-25T10:36:27;7.60;99.90
13186;DHT22;6658;53.080;7.428;2024-01-25T10:39:03;7.70;99.90
13186;DHT22;6658;53.080;7.428;2024-01-25T10:41:46;7.80;99.90
13186;DHT22;6658;53.080;7.428;2024-01-25T10:50:44;7.80;99.90
13186;DHT22;6658;53.080;7.428;2024-01-25T10:53:28;7.80;99.90
13186;DHT22;6658;53.080;7.428;2024-01-25T10:56:10;7.80;99.90
13186;DHT22;6658;53.080;7.428;2024-01-25T11:05:11;7.70;99.90
13186;DHT22;6658;53.080;7.428;2024-01-25T11:07:48;7.70;99.90
13186;DHT22;6658;53.080;7.428;2024-01-25T11:10:34;7.70;99.90
13186;DHT22;6658;53.080;7.428;2024-01-25T11:13:03;7.70;99.90
13186;DHT22;6658;53.080;7.428;2024-01-25T11:15:34;7.80;99.90
13186;DHT22;6658;53.080;7.428;2024-01-25T11:18:04;7.80;99.90
13186;DHT22;6658;53.080;7.428;2024-01-25T11:23:40;8.00;99.90
13186;DHT22;6658;53.080;7.428;2024-01-25T11:26:29;8.00;99.90
13186;DHT22;6658;53.080;7.428;2024-01-25T11:28:55;8.00;99.90
13186;DHT22;6658;53.080;7.428;2024-01-25T11:34:19;7.90;99.90
13186;DHT22;6658;53.080;7.428;2024-01-25T11:36:46;8.00;99.90
13186;DHT22;6658;53.080;7.428;2024-01-25T11:42:34;8.50;99.90
13186;DHT22;6658;53.080;7.428;2024-01-25T11:45:04;8.70;99.90
13186;DHT22;6658;53.080;7.428;2024-01-25T11:47:48;8.80;99.90
13186;DHT22;6658;53.080;7.428;2024-01-25T11:50:15;8.90;99.90
13186;DHT22;6658;53.080;7.428;2024-01-25T11:52:55;8.90;99.90
13186;DHT22;6658;53.080;7.428;2024-01-25T11:58:31;8.90;99.90
13186;DHT22;6658;53.080;7.428;2024-01-25T12:01:16;8.90;99.90
13186;DHT22;6658;53.080;7.428;2024-01-25T12:04:07;8.70;99.90
13186;DHT22;6658;53.080;7.428;2024-01-25T12:06:44;8.60;99.90
13186;DHT22;6658;53.080;7.428;2024-01-25T12:12:34;8.40;99.90
13186;DHT22;6658;53.080;7.428;2024-01-25T12:15:40;8.30;99.90
13186;DHT22;6658;53.080;7.428;2024-01-25T12:18:07;8.20;99.90
13186;DHT22;6658;53.080;7.428;2024-01-25T12:20:39;8.20;99.90
13186;DHT22;6658;53.080;7.428;2024-01-25T12:23:08;8.20;99.90
13186;DHT22;6658;53.080;7.428;2024-01-25T12:25:41;8.10;99.90
13186;DHT22;6658;53.080;7.428;2024-01-25T12:28:20;8.10;99.90
13186;DHT22;6658;53.080;7.428;2024-01-25T12:30:49;8.10;99.90
13186;DHT22;6658;53.080;7.428;2024-01-25T12:33:41;8.10;99.90
13186;DHT22;6658;53.080;7.428;2024-01-25T12:36:27;8.00;99.90
13186;DHT22;6658;53.080;7.428;2024-01-25T12:45:03;8.10;99.90
13186;DHT22;6658;53.080;7.428;2024-01-25T12:50:13;8.10;99.90
13186;DHT22;6658;53.080;7.428;2024-01-25T12:52:42;8.10;99.90
13186;DHT22;6658;53.080;7.428;2024-01-25T12:55:07;8.20;99.90
13186;DHT22;6658;53.080;7.428;2024-01-25T12:57:48;8.20;99.90
13186;DHT22;6658;53.080;7.428;2024-01-25T13:00:25;8.40;99.90
13186;DHT22;6658;53.080;7.428;2024-01-25T13:03:11;8.50;99.90
13186;DHT22;6658;53.080;7.428;2024-01-25T13:05:41;8.60;99.90
13186;DHT22;6658;53.080;7.428;2024-01-25T13:08:15;8.70;99.90
13186;DHT22;6658;53.080;7.428;2024-01-25T13:11:15;8.90;99.90
13186;DHT22;6658;53.080;7.428;2024-01-25T13:13:51;9.00;99.90
13186;DHT22;6658;53.080;7.428;2024-01-25T13:16:19;9.10;99.90
13186;DHT22;6658;53.080;7.428;2024-01-25T13:18:45;9.10;99.90
13186;DHT22;6658;53.080;7.428;2024-01-25T13:21:19;9.10;99.90
13186;DHT22;6658;53.080;7.428;2024-01-25T13:23:48;9.10;99.90
13186;DHT22;6658;53.080;7.428;2024-01-25T13:26:43;9.10;99.90
13186;DHT22;6658;53.080;7.428;2024-01-25T13:29:22;9.10;99.90
13186;DHT22;6658;53.080;7.428;2024-01-25T13:31:51;9.20;99.90
13186;DHT22;6658;53.080;7.428;2024-01-25T13:34:17;9.20;99.90
13186;DHT22;6658;53.080;7.428;2024-01-25T13:36:45;9.20;99.90
13186;DHT22;6658;53.080;7.428;2024-01-25T13:39:21;9.10;99.90
13186;DHT22;6658;53.080;7.428;2024-01-25T13:44:53;9.00;99.90
13186;DHT22;6658;53.080;7.428;2024-01-25T13:47:22;8.90;99.90
13186;DHT22;6658;53.080;7.428;2024-01-25T13:50:17;8.80;99.90
13186;DHT22;6658;53.080;7.428;2024-01-25T13:53:32;8.70;99.90
13186;DHT22;6658;53.080;7.428;2024-01-25T13:59:42;8.60;99.90
13186;DHT22;6658;53.080;7.428;2024-01-25T14:02:16;8.60;99.90
13186;DHT22;6658;53.080;7.428;2024-01-25T14:05:25;8.50;99.90
13186;DHT22;6658;53.080;7.428;2024-01-25T14:07:59;8.50;99.90
13186;DHT22;6658;53.080;7.428;2024-01-25T14:10:40;8.50;99.90
13186;DHT22;6658;53.080;7.428;2024-01-25T14:13:20;8.50;99.90
13186;DHT22;6658;53.080;7.428;2024-01-25T14:16:25;8.50;99.90
13186;DHT22;6658;53.080;7.428;2024-01-25T14:18:57;8.50;99.90
13186;DHT22;6658;53.080;7.428;2024-01-25T14:21:55;8.40;99.90
13186;DHT22;6658;53.080;7.428;2024-01-25T14:24:47;8.40;99.90
13186;DHT22;6658;53.080;7.428;2024-01-25T14:27:27;8.40;99.90
13186;DHT22;6658;53.080;7.428;2024-01-25T14:30:52;8.40;99.90
13186;DHT22;6658;53.080;7.428;2024-01-25T14:33:44;8.50;99.90
13186;DHT22;6658;53.080;7.428;2024-01-25T14:36:46;8.60;99.90
13186;DHT22;6658;53.080;7.428;2024-01-25T14:40:11;8.60;99.90
13186;DHT22;6658;53.080;7.428;2024-01-25T14:42:49;8.60;99.90
13186;DHT22;6658;53.080;7.428;2024-01-25T14:51:34;8.40;99.90
13186;DHT22;6658;53.080;7.428;2024-01-25T14:54:38;8.30;99.90
13186;DHT22;6658;53.080;7.428;2024-01-25T15:07:20;7.80;99.90
13186;DHT22;6658;53.080;7.428;2024-01-25T15:09:49;7.70;99.90
13186;DHT22;6658;53.080;7.428;2024-01-25T15:12:36;7.70;99.90
13186;DHT22;6658;53.080;7.428;2024-01-25T15:15:17;7.60;99.90
13186;DHT22;6658;53.080;7.428;2024-01-25T15:20:37;7.50;99.90
13186;DHT22;6658;53.080;7.428;2024-01-25T15:23:26;7.40;99.90
13186;DHT22;6658;53.080;7.428;2024-01-25T15:26:10;7.30;99.90
13186;DHT22;6658;53.080;7.428;2024-01-25T15:29:22;7.30;99.90
13186;DHT22;6658;53.080;7.428;2024-01-25T15:32:29;7.20;99.90
13186;DHT22;6658;53.080;7.428;2024-01-25T15:34:58;7.10;99.90
13186;DHT22;6658;53.080;7.428;2024-01-25T15:37:27;7.00;99.90
13186;DHT22;6658;53.080;7.428;2024-01-25T15:39:53;6.80;99.90
13186;DHT22;6658;53.080;7.428;2024-01-25T15:42:19;6.80;99.90
13186;DHT22;6658;53.080;7.428;2024-01-25T15:44:58;6.60;99.90
13186;DHT22;6658;53.080;7.428;2024-01-25T15:50:11;6.50;99.90
13186;DHT22;6658;53.080;7.428;2024-01-25T15:52:37;6.40;99.90
13186;DHT22;6658;53.080;7.428;2024-01-25T15:55:08;6.40;99.90
13186;DHT22;6658;53.080;7.428;2024-01-25T15:57:34;6.40;99.90
13186;DHT22;6658;53.080;7.428;2024-01-25T16:00:01;6.30;99.90
13186;DHT22;6658;53.080;7.428;2024-01-25T16:02:32;6.30;99.90
13186;DHT22;6658;53.080;7.428;2024-01-25T16:04:58;6.20;99.90
13186;DHT22;6658;53.080;7.428;2024-01-25T16:07:30;6.20;99.90
13186;DHT22;6658;53.080;7.428;2024-01-25T16:09:56;6.20;99.90
13186;DHT22;6658;53.080;7.428;2024-01-25T16:12:22;6.20;99.90
13186;DHT22;6658;53.080;7.428;2024-01-25T16:14:53;6.20;99.90
13186;DHT22;6658;53.080;7.428;2024-01-25T16:17:26;6.20;99.90
13186;DHT22;6658;53.080;7.428;2024-01-25T16:19:55;6.20;99.90
13186;DHT22;6658;53.080;7.428;2024-01-25T16:22:21;6.20;99.90
13186;DHT22;6658;53.080;7.428;2024-01-25T16:24:52;6.30;99.90
13186;DHT22;6658;53.080;7.428;2024-01-25T16:27:20;6.30;99.90
13186;DHT22;6658;53.080;7.428;2024-01-25T16:29:49;6.30;99.90
13186;DHT22;6658;53.080;7.428;2024-01-25T16:32:15;6.40;99.90
13186;DHT22;6658;53.080;7.428;2024-01-25T16:34:44;6.40;99.90
13186;DHT22;6658;53.080;7.428;2024-01-25T16:37:10;6.50;99.90
13186;DHT22;6658;53.080;7.428;2024-01-25T16:39:36;6.50;99.90
13186;DHT22;6658;53.080;7.428;2024-01-25T16:42:19;6.50;99.90
13186;DHT22;6658;53.080;7.428;2024-01-25T16:44:55;6.50;99.90
13186;DHT22;6658;53.080;7.428;2024-01-25T16:47:21;6.60;99.90
13186;DHT22;6658;53.080;7.428;2024-01-25T16:49:47;6.60;99.90
13186;DHT22;6658;53.080;7.428;2024-01-25T16:52:18;6.60;99.90
13186;DHT22;6658;53.080;7.428;2024-01-25T16:54:44;6.70;99.90
13186;DHT22;6658;53.080;7.428;2024-01-25T16:57:10;6.70;99.90
13186;DHT22;6658;53.080;7.428;2024-01-25T16:59:36;6.70;99.90
13186;DHT22;6658;53.080;7.428;2024-01-25T17:02:01;6.70;99.90
13186;DHT22;6658;53.080;7.428;2024-01-25T17:04:38;6.70;99.90
13186;DHT22;6658;53.080;7.428;2024-01-25T17:07:09;6.80;99.90
13186;DHT22;6658;53.080;7.428;2024-01-25T17:09:38;6.80;99.90
13186;DHT22;6658;53.080;7.428;2024-01-25T17:12:04;6.80;99.90
13186;DHT22;6658;53.080;7.428;2024-01-25T17:14:39;6.80;99.90
13186;DHT22;6658;53.080;7.428;2024-01-25T17:17:37;6.80;99.90
13186;DHT22;6658;53.080;7.428;2024-01-25T17:23:03;6.80;99.90
13186;DHT22;6658;53.080;7.428;2024-01-25T17:25:29;6.80;99.90
13186;DHT22;6658;53.080;7.428;2024-01-25T17:27:55;6.80;99.90
13186;DHT22;6658;53.080;7.428;2024-01-25T17:30:24;6.80;99.90
13186;DHT22;6658;53.080;7.428;2024-01-25T17:32:50;6.80;99.90
13186;DHT22;6658;53.080;7.428;2024-01-25T17:38:04;6.90;99.90
13186;DHT22;6658;53.080;7.428;2024-01-25T17:40:35;6.90;99.90
13186;DHT22;6658;53.080;7.428;2024-01-25T17:43:04;6.90;99.90
13186;DHT22;6658;53.080;7.428;2024-01-25T17:45:29;6.90;99.90
13186;DHT22;6658;53.080;7.428;2024-01-25T17:47:56;7.00;99.90
13186;DHT22;6658;53.080;7.428;2024-01-25T17:50:24;7.00;99.90
13186;DHT22;6658;53.080;7.428;2024-01-25T17:52:50;7.00;99.90
13186;DHT22;6658;53.080;7.428;2024-01-25T17:55:21;7.00;99.90
13186;DHT22;6658;53.080;7.428;2024-01-25T17:57:53;7.00;99.90
13186;DHT22;6658;53.080;7.428;2024-01-25T18:03:45;7.10;99.90
13186;DHT22;6658;53.080;7.428;2024-01-25T18:06:13;7.10;99.90
13186;DHT22;6658;53.080;7.428;2024-01-25T18:09:06;7.10;99.90
13186;DHT22;6658;53.080;7.428;2024-01-25T18:11:49;7.10;99.90
13186;DHT22;6658;53.080;7.428;2024-01-25T18:14:19;7.10;99.90
13186;DHT22;6658;53.080;7.428;2024-01-25T18:16:45;7.20;99.90